Time;durP1;ratioP1;P1;durP2;ratioP2;P2;SDS_P1;SDS_P2;PMS_P1;PMS_P2;Temp;Humidity;BMP_temperature;BMP_pressure;BME280_temperature;BME280_humidity;BME280_pressure;Samples;Min_cycle;Max_cycle;Signal;HPM_P1;HPM_P2
2023/11/28 00:00:13;;;;;;;;;34.80;33.00;;;;;12.68;100.00;99370.09;2105657;27;46387;-57
2023/11/28 00:01:15;;;;;;;;;37.50;34.00;;;;;12.67;100.00;99359.53;2104627;27;46520;-60
2023/11/28 00:02:15;;;;;;;;;35.20;31.00;;;;;12.66;100.00;99357.81;2105668;27;46795;-62
2023/11/28 00:03:16;;;;;;;;;13.00;13.00;;;;;12.65;100.00;99364.06;2105835;27;45743;-61
2023/11/28 00:04:16;;;;;;;;;38.25;33.25;;;;;12.63;100.00;99364.16;2105482;27;46695;-60
2023/11/28 00:05:17;;;;;;;;;26.00;25.50;;;;;12.62;100.00;99359.78;2105745;27;46533;-58
2023/11/28 00:06:18;;;;;;;;;20.75;19.75;;;;;12.62;100.00;99359.78;2105694;27;46184;-59
2023/11/28 00:07:18;;;;;;;;;33.20;32.20;;;;;12.62;100.00;99358.91;2105731;28;45786;-59
2023/11/28 00:08:20;;;;;;;;;23.75;22.50;;;;;12.61;100.00;99366.03;2105712;28;46559;-60
2023/11/28 00:09:20;;;;;;;;;15.40;14.40;;;;;12.63;100.00;99366.81;2105089;28;46581;-60
2023/11/28 00:10:21;;;;;;;;;10.67;10.67;;;;;12.65;100.00;99370.25;2104851;28;46326;-59
2023/11/28 00:11:23;;;;;;;;;14.50;13.25;;;;;12.66;100.00;99368.44;2105385;27;46572;-59
2023/11/28 00:12:24;;;;;;;;;9.50;8.75;;;;;12.64;100.00;99362.34;2105168;27;46615;-59
2023/11/28 00:13:28;;;;;;;;;9.00;8.25;;;;;12.63;100.00;99369.47;2105690;28;46487;-58
2023/11/28 00:14:28;;;;;;;;;16.25;14.50;;;;;12.64;100.00;99367.69;2105170;27;48726;-61
2023/11/28 00:15:29;;;;;;;;;6.00;6.00;;;;;12.63;100.00;99366.81;2105412;27;46722;-59
2023/11/28 00:16:29;;;;;;;;;13.00;13.00;;;;;12.64;100.00;99371.19;2105052;28;46447;-60
2023/11/28 00:17:29;;;;;;;;;14.00;13.67;;;;;12.65;100.00;99375.56;2105107;28;46457;-61
2023/11/28 00:18:29;;;;;;;;;13.75;13.25;;;;;12.62;100.00;99370.41;2104710;28;45132;-59
2023/11/28 00:19:30;;;;;;;;;24.50;23.75;;;;;12.62;100.00;99372.22;2110735;27;46633;-58
2023/11/28 00:20:30;;;;;;;;;17.50;17.50;;;;;12.63;100.00;99377.47;2111213;27;46342;-60
2023/11/28 00:21:31;;;;;;;;;13.25;13.25;;;;;12.64;100.00;99373.00;2105571;27;46884;-61
2023/11/28 00:22:31;;;;;;;;;11.33;11.00;;;;;12.63;100.00;99377.47;2105144;28;46562;-60
2023/11/28 00:23:31;;;;;;;;;8.67;8.67;;;;;12.64;100.00;99373.00;2105638;28;46407;-60
2023/11/28 00:24:32;;;;;;;;;6.00;6.00;;;;;12.65;100.00;99378.25;2106344;27;46788;-59
2023/11/28 00:25:32;;;;;;;;;14.33;12.33;;;;;12.70;100.00;99375.31;2105301;28;46354;-58
2023/11/28 00:26:33;;;;;;;;;10.67;9.33;;;;;12.71;100.00;99377.09;2105615;28;46772;-58
2023/11/28 00:27:33;;;;;;;;;7.33;7.33;;;;;12.73;100.00;99371.69;2106030;27;46279;-59
2023/11/28 00:28:33;;;;;;;;;6.67;6.00;;;;;12.71;100.00;99370.91;2105676;27;46122;-60
2023/11/28 00:29:34;;;;;;;;;5.67;5.67;;;;;12.71;100.00;99371.75;2106045;27;46483;-59
2023/11/28 00:30:34;;;;;;;;;6.67;6.67;;;;;12.70;100.00;99372.66;2106282;27;45583;-61
2023/11/28 00:31:34;;;;;;;;;6.00;6.00;;;;;12.70;100.00;99378.00;2102543;28;46564;-58
2023/11/28 00:32:35;;;;;;;;;5.00;5.00;;;;;12.68;100.00;99370.09;2090536;28;46396;-60
2023/11/28 00:33:35;;;;;;;;;8.00;8.00;;;;;12.70;100.00;99374.47;2102768;28;46505;-61
2023/11/28 00:34:36;;;;;;;;;12.00;9.00;;;;;12.71;100.00;99373.56;2094457;28;46611;-59
2023/11/28 00:35:37;;;;;;;;;8.00;7.00;;;;;12.71;100.00;99384.22;2095903;28;46586;-62
2023/11/28 00:36:38;;;;;;;;;10.00;8.25;;;;;12.71;100.00;99373.56;2107803;27;46555;-60
2023/11/28 00:37:38;;;;;;;;;6.00;6.00;;;;;12.72;100.00;99380.59;2096179;28;46635;-58
2023/11/28 00:38:38;;;;;;;;;8.33;8.00;;;;;12.71;100.00;99376.22;2103472;28;46259;-59
2023/11/28 00:39:39;;;;;;;;;7.00;6.33;;;;;12.71;100.00;99385.06;2105702;27;46794;-60
2023/11/28 00:40:40;;;;;;;;;5.75;4.50;;;;;12.65;100.00;99385.38;2105206;27;47182;-60
2023/11/28 00:41:41;;;;;;;;;4.00;4.00;;;;;12.62;100.00;99382.88;2105404;27;46560;-60
2023/11/28 00:42:41;;;;;;;;;6.67;6.33;;;;;12.61;100.00;99382.00;2105086;28;46537;-59
2023/11/28 00:43:43;;;;;;;;;8.33;8.33;;;;;12.61;100.00;99378.50;2105683;27;46780;-59
2023/11/28 00:44:43;;;;;;;;;6.75;5.50;;;;;12.65;100.00;99380.91;2105136;27;47095;-57
2023/11/28 00:45:44;;;;;;;;;8.00;7.67;;;;;12.68;100.00;99385.19;2105679;27;46168;-61
2023/11/28 00:46:45;;;;;;;;;5.75;5.00;;;;;12.60;100.00;99388.28;2104811;27;46932;-60
2023/11/28 00:47:45;;;;;;;;;10.33;10.33;;;;;12.60;100.00;99390.06;2104513;28;46279;-59
2023/11/28 00:48:47;;;;;;;;;5.33;4.67;;;;;12.58;100.00;99383.97;2101944;27;46418;-60
2023/11/28 00:49:47;;;;;;;;;7.50;6.75;;;;;12.57;100.00;99384.88;2104633;28;46789;-61
2023/11/28 00:50:47;;;;;;;;;9.67;8.67;;;;;12.56;100.00;99383.16;2104490;28;46842;-61
2023/11/28 00:51:48;;;;;;;;;8.00;6.00;;;;;12.56;100.00;99380.50;2103984;28;46493;-61
2023/11/28 00:52:49;;;;;;;;;11.00;9.67;;;;;12.54;100.00;99383.25;2105369;28;46555;-61
2023/11/28 00:53:49;;;;;;;;;6.00;6.00;;;;;12.54;100.00;99391.22;2105204;27;46371;-62
2023/11/28 00:54:49;;;;;;;;;5.00;5.00;;;;;12.54;100.00;99393.88;2104590;28;46199;-63
2023/11/28 00:55:50;;;;;;;;;6.00;5.33;;;;;12.53;100.00;99386.84;2104667;28;46877;-64
2023/11/28 00:56:50;;;;;;;;;3.33;3.33;;;;;12.52;100.00;99387.78;2105415;28;46665;-60
2023/11/28 00:57:50;;;;;;;;;4.67;4.67;;;;;12.51;100.00;99388.72;2105304;27;46262;-63
2023/11/28 00:58:51;;;;;;;;;3.00;3.00;;;;;12.53;100.00;99394.84;2105546;27;46299;-61
2023/11/28 00:59:51;;;;;;;;;5.00;4.00;;;;;12.54;100.00;99388.56;2105282;27;46709;-63
2023/11/28 01:00:53;;;;;;;;;4.00;4.00;;;;;12.52;100.00;99389.59;2105111;28;46607;-61
2023/11/28 01:01:53;;;;;;;;;3.00;3.00;;;;;12.53;100.00;99391.31;2105272;28;46376;-61
2023/11/28 01:02:54;;;;;;;;;3.00;3.00;;;;;12.52;100.00;99394.91;2105368;28;46455;-63
2023/11/28 01:03:54;;;;;;;;;5.00;5.00;;;;;12.51;100.00;99395.84;2105339;27;46280;-63
2023/11/28 01:04:55;;;;;;;;;1.67;1.33;;;;;12.39;100.00;99392.00;2105352;27;46813;-64
2023/11/28 01:05:55;;;;;;;;;2.00;2.00;;;;;12.47;100.00;99399.63;2105241;27;46753;-59
2023/11/28 01:06:56;;;;;;;;;4.00;3.33;;;;;12.33;100.00;99406.50;2104766;27;46341;-60
2023/11/28 01:07:56;;;;;;;;;3.67;3.67;;;;;12.44;100.00;99399.75;2104063;28;46309;-60
2023/11/28 01:08:57;;;;;;;;;3.00;3.00;;;;;12.45;100.00;99404.13;2105163;28;46308;-60
2023/11/28 01:09:57;;;;;;;;;2.67;2.67;;;;;12.46;100.00;99408.53;2104513;28;46164;-60
2023/11/28 01:10:58;;;;;;;;;4.00;4.00;;;;;12.47;100.00;99404.94;2105022;28;47020;-59
2023/11/28 01:11:58;;;;;;;;;3.00;3.00;;;;;12.46;100.00;99411.22;2104987;27;46300;-59
2023/11/28 01:12:58;;;;;;;;;4.00;3.00;;;;;12.36;100.00;99411.66;2105391;28;46234;-60
2023/11/28 01:13:59;;;;;;;;;4.33;3.33;;;;;12.41;100.00;99419.41;2105074;28;46532;-61
2023/11/28 01:14:59;;;;;;;;;4.00;3.00;;;;;12.44;100.00;99416.56;2105488;27;47009;-60
2023/11/28 01:15:59;;;;;;;;;4.33;3.00;;;;;12.44;100.00;99411.25;2105652;27;46277;-60
2023/11/28 01:17:00;;;;;;;;;3.67;3.00;;;;;12.46;100.00;99417.38;2105062;28;45870;-60
2023/11/28 01:18:01;;;;;;;;;2.00;2.00;;;;;12.45;100.00;99415.66;2105352;27;46465;-59
2023/11/28 01:19:01;;;;;;;;;4.00;4.00;;;;;12.45;100.00;99415.66;2105880;27;46636;-58
2023/11/28 01:20:02;;;;;;;;;3.00;3.00;;;;;12.46;100.00;99427.16;2110999;27;47080;-59
2023/11/28 01:21:03;;;;;;;;;3.25;3.25;;;;;12.45;100.00;99428.97;2105843;27;45099;-61
2023/11/28 01:22:04;;;;;;;;;2.00;2.00;;;;;12.46;100.00;99429.84;2105448;27;46636;-60
2023/11/28 01:23:04;;;;;;;;;2.50;2.50;;;;;12.45;100.00;99425.41;2104139;27;46657;-61
2023/11/28 01:24:05;;;;;;;;;3.67;3.00;;;;;12.46;100.00;99429.84;2105312;27;46694;-59
2023/11/28 01:25:05;;;;;;;;;2.33;2.33;;;;;12.43;100.00;99425.50;2104938;27;46515;-60
2023/11/28 01:26:06;;;;;;;;;3.00;3.00;;;;;12.46;100.00;99432.50;2095473;28;46500;-59
2023/11/28 01:27:06;;;;;;;;;3.00;2.33;;;;;12.46;100.00;99430.69;2095776;28;45691;-60
2023/11/28 01:28:07;;;;;;;;;3.67;3.67;;;;;12.47;100.00;99431.56;2105109;28;45714;-59
2023/11/28 01:29:07;;;;;;;;;3.00;3.00;;;;;12.46;100.00;99435.16;2105123;28;46654;-60
2023/11/28 01:30:08;;;;;;;;;3.00;3.00;;;;;12.47;100.00;99439.53;2105091;28;46678;-61
2023/11/28 01:31:14;;;;;;;;;3.67;3.00;;;;;12.48;100.00;99434.13;2104656;28;46587;-59
2023/11/28 01:32:14;;;;;;;;;3.50;3.00;;;;;12.48;100.00;99435.94;2104674;28;46528;-61
2023/11/28 01:33:14;;;;;;;;;2.33;2.00;;;;;12.44;100.00;99423.69;2105211;28;46597;-60
2023/11/28 01:34:15;;;;;;;;;2.00;2.00;;;;;12.46;100.00;99432.50;2104858;27;46824;-59
2023/11/28 01:35:15;;;;;;;;;2.00;2.00;;;;;12.47;100.00;99434.22;2105594;28;46487;-60
2023/11/28 01:36:16;;;;;;;;;3.00;2.67;;;;;12.46;100.00;99430.69;2105283;28;46311;-63
2023/11/28 01:37:18;;;;;;;;;2.00;2.00;;;;;12.48;100.00;99435.94;2104983;27;46228;-62
2023/11/28 01:38:18;;;;;;;;;2.00;2.00;;;;;12.47;100.00;99431.56;2105265;27;47026;-61
2023/11/28 01:39:18;;;;;;;;;2.00;2.00;;;;;12.47;100.00;99432.41;2105326;27;45882;-62
2023/11/28 01:40:19;;;;;;;;;2.00;2.00;;;;;12.48;100.00;99431.47;2103175;28;46347;-60
2023/11/28 01:41:19;;;;;;;;;3.00;3.00;;;;;12.47;100.00;99429.75;2104593;28;46602;-61
2023/11/28 01:42:19;;;;;;;;;2.00;2.00;;;;;12.48;100.00;99433.28;2105198;27;46698;-58
2023/11/28 01:43:24;;;;;;;;;2.00;2.00;;;;;12.48;100.00;99431.47;2104693;27;46976;-61
2023/11/28 01:44:24;;;;;;;;;2.00;2.00;;;;;12.47;100.00;99431.56;2105229;27;46605;-62
2023/11/28 01:45:25;;;;;;;;;0.33;0.33;;;;;12.47;100.00;99435.06;2105009;27;46497;-60
2023/11/28 01:46:25;;;;;;;;;3.00;3.00;;;;;12.47;100.00;99444.84;2104789;27;46457;-60
2023/11/28 01:47:26;;;;;;;;;2.00;2.00;;;;;12.47;100.00;99448.38;2104551;28;46724;-60
2023/11/28 01:48:27;;;;;;;;;1.67;1.67;;;;;12.48;100.00;99443.91;2104416;28;46500;-60
2023/11/28 01:49:34;;;;;;;;;2.67;2.67;;;;;12.49;100.00;99445.63;2104606;27;46472;-59
2023/11/28 01:50:34;;;;;;;;;0.75;0.75;;;;;12.50;100.00;99452.69;2105071;27;46897;-59
2023/11/28 01:51:36;;;;;;;;;1.00;1.00;;;;;12.24;100.00;99462.78;2105070;27;46321;-60
2023/11/28 01:52:36;;;;;;;;;4.00;2.75;;;;;12.19;100.00;99455.97;2104506;27;46620;-61
2023/11/28 01:53:37;;;;;;;;;1.00;1.00;;;;;12.16;100.00;99462.28;2104993;27;46739;-59
2023/11/28 01:54:38;;;;;;;;;2.67;2.00;;;;;12.13;100.00;99449.16;2105209;28;45510;-60
2023/11/28 01:55:39;;;;;;;;;2.50;2.00;;;;;12.12;100.00;99463.38;2103544;27;46345;-57
2023/11/28 01:56:41;;;;;;;;;2.00;2.00;;;;;12.11;100.00;99466.97;2102659;27;46129;-58
2023/11/28 01:57:41;;;;;;;;;3.00;2.00;;;;;12.11;100.00;99463.47;2103601;27;46450;-60
2023/11/28 01:58:42;;;;;;;;;3.00;3.00;;;;;12.10;100.00;99459.09;2105150;27;46806;-58
2023/11/28 01:59:46;;;;;;;;;4.00;4.00;;;;;12.10;100.00;99456.44;2104464;28;46565;-59
2023/11/28 02:00:47;;;;;;;;;2.25;2.00;;;;;12.07;100.00;99455.63;2104469;28;46905;-61
2023/11/28 02:01:50;;;;;;;;;3.75;3.00;;;;;12.08;100.00;99467.13;2104783;27;46736;-60
2023/11/28 02:02:50;;;;;;;;;2.75;2.75;;;;;12.06;100.00;99467.19;2103881;28;47234;-61
2023/11/28 02:03:51;;;;;;;;;2.00;2.00;;;;;12.07;100.00;99466.28;2105325;28;46401;-62
2023/11/28 02:04:52;;;;;;;;;4.50;3.00;;;;;12.38;100.00;99470.09;2104967;27;46932;-60
2023/11/28 02:05:53;;;;;;;;;3.67;3.00;;;;;12.41;100.00;99472.59;2105651;28;45876;-60
2023/11/28 02:06:53;;;;;;;;;4.00;4.00;;;;;12.42;100.00;99465.50;2104547;27;46713;-61
2023/11/28 02:07:55;;;;;;;;;3.00;3.00;;;;;12.44;100.00;99471.59;2105102;27;46025;-61
2023/11/28 02:08:55;;;;;;;;;3.25;3.25;;;;;12.43;100.00;99469.88;2104800;27;46759;-61
2023/11/28 02:09:57;;;;;;;;;3.00;3.00;;;;;12.43;100.00;99473.38;2105154;28;47055;-60
2023/11/28 02:10:59;;;;;;;;;3.25;3.00;;;;;12.43;100.00;99472.53;2104760;27;46578;-62
2023/11/28 02:11:59;;;;;;;;;3.25;3.25;;;;;12.43;100.00;99476.06;2104368;27;45784;-62
2023/11/28 02:13:00;;;;;;;;;4.33;4.00;;;;;12.43;100.00;99483.16;2100733;27;46865;-60
2023/11/28 02:14:00;;;;;;;;;2.00;2.00;;;;;12.45;100.00;99479.53;2103163;28;46696;-58
2023/11/28 02:15:01;;;;;;;;;4.33;4.00;;;;;12.43;100.00;99484.03;2104866;27;46162;-61
2023/11/28 02:16:15;;;;;;;;;3.00;3.00;;;;;12.45;100.00;99481.28;2104548;27;46511;-60
2023/11/28 02:17:16;;;;;;;;;2.75;2.75;;;;;12.44;100.00;99476.91;2104796;27;46383;-59
2023/11/28 02:18:16;;;;;;;;;2.67;2.67;;;;;12.44;100.00;99480.44;2104991;27;46205;-60
2023/11/28 02:19:16;;;;;;;;;2.00;2.00;;;;;12.45;100.00;99481.28;2108257;27;46754;-62
2023/11/28 02:20:17;;;;;;;;;4.00;3.00;;;;;12.45;100.00;99481.28;2112902;27;46569;-60
2023/11/28 02:21:17;;;;;;;;;4.00;3.33;;;;;12.44;100.00;99477.78;2098951;27;46407;-59
2023/11/28 02:22:18;;;;;;;;;3.67;3.67;;;;;12.44;100.00;99475.09;2104177;28;46566;-60
2023/11/28 02:23:19;;;;;;;;;3.75;3.75;;;;;12.44;100.00;99476.91;2104801;27;46733;-58
2023/11/28 02:24:19;;;;;;;;;3.00;3.00;;;;;12.44;100.00;99479.56;2104804;28;46248;-60
2023/11/28 02:25:20;;;;;;;;;3.00;3.00;;;;;12.44;100.00;99482.22;2104548;27;46521;-61
2023/11/28 02:26:27;;;;;;;;;3.00;3.00;;;;;12.42;100.00;99492.94;2104957;27;46878;-61
2023/11/28 02:27:28;;;;;;;;;3.25;3.25;;;;;12.47;100.00;99476.78;2103369;27;46983;-61
2023/11/28 02:28:28;;;;;;;;;5.33;3.67;;;;;12.47;100.00;99482.97;2104860;27;45986;-61
2023/11/28 02:29:28;;;;;;;;;4.00;4.00;;;;;12.44;100.00;99482.22;2104789;27;46742;-62
2023/11/28 02:30:29;;;;;;;;;4.00;4.00;;;;;12.41;100.00;99488.56;2095400;28;46517;-58
2023/11/28 02:31:29;;;;;;;;;4.00;4.00;;;;;12.40;100.00;99488.66;2095486;28;46043;-60
2023/11/28 02:32:29;;;;;;;;;4.00;4.00;;;;;12.38;100.00;99486.06;2105268;27;45943;-58
2023/11/28 02:33:29;;;;;;;;;3.00;3.00;;;;;12.38;100.00;99483.41;2102194;28;46463;-60
2023/11/28 02:34:30;;;;;;;;;3.67;3.67;;;;;12.37;100.00;99485.22;2105279;27;46323;-60
2023/11/28 02:35:30;;;;;;;;;5.00;3.33;;;;;12.38;100.00;99489.59;2104613;28;46161;-60
2023/11/28 02:36:30;;;;;;;;;3.33;3.33;;;;;12.41;100.00;99493.03;2104351;28;46195;-59
2023/11/28 02:37:31;;;;;;;;;4.00;4.00;;;;;12.44;100.00;99482.22;2104321;28;46664;-60
2023/11/28 02:38:31;;;;;;;;;3.00;3.00;;;;;12.45;100.00;99487.50;2104712;28;46806;-61
2023/11/28 02:39:31;;;;;;;;;4.00;3.33;;;;;12.34;100.00;99490.69;2104709;28;46409;-60
2023/11/28 02:40:32;;;;;;;;;4.00;4.00;;;;;12.16;100.00;99493.34;2094505;28;46300;-59
2023/11/28 02:41:32;;;;;;;;;3.67;3.67;;;;;12.18;100.00;99494.13;2095418;28;46275;-60
2023/11/28 02:42:32;;;;;;;;;3.00;3.00;;;;;12.32;100.00;99489.91;2104558;28;46680;-61
2023/11/28 02:43:33;;;;;;;;;3.00;3.00;;;;;12.34;100.00;99496.00;2103219;28;46177;-60
2023/11/28 02:44:33;;;;;;;;;4.67;4.67;;;;;12.38;100.00;99486.94;2105043;27;46506;-59
2023/11/28 02:45:34;;;;;;;;;2.67;2.67;;;;;12.42;100.00;99479.66;2104460;28;46366;-60
2023/11/28 02:46:34;;;;;;;;;4.00;4.00;;;;;12.35;100.00;99492.41;2104586;27;46485;-61
2023/11/28 02:47:34;;;;;;;;;5.00;4.33;;;;;12.37;100.00;99489.66;2104116;28;46527;-60
2023/11/28 02:48:35;;;;;;;;;4.33;4.33;;;;;12.39;100.00;99487.78;2102503;28;46778;-58
2023/11/28 02:49:35;;;;;;;;;3.67;3.67;;;;;12.37;100.00;99487.88;2104406;27;46428;-57
2023/11/28 02:50:37;;;;;;;;;5.00;4.00;;;;;12.38;100.00;99491.38;2104637;28;46488;-58
2023/11/28 02:51:37;;;;;;;;;4.00;4.00;;;;;12.37;100.00;99497.66;2104803;28;47003;-62
2023/11/28 02:52:39;;;;;;;;;5.00;5.00;;;;;12.37;100.00;99490.53;2104434;28;46332;-58
2023/11/28 02:53:39;;;;;;;;;4.00;4.00;;;;;12.36;100.00;99502.09;2104301;28;46452;-61
2023/11/28 02:54:40;;;;;;;;;3.67;3.67;;;;;12.37;100.00;99500.31;2104207;28;46366;-59
2023/11/28 02:55:41;;;;;;;;;5.00;4.00;;;;;12.38;100.00;99494.06;2104539;27;46637;-60
2023/11/28 02:56:41;;;;;;;;;5.67;5.00;;;;;12.36;100.00;99499.44;2104705;28;46648;-59
2023/11/28 02:57:41;;;;;;;;;5.67;5.00;;;;;12.36;100.00;99507.44;2104331;28;46321;-61
2023/11/28 02:58:42;;;;;;;;;4.00;4.00;;;;;12.40;100.00;99509.94;2104419;28;46175;-61
2023/11/28 02:59:42;;;;;;;;;5.00;5.00;;;;;12.40;100.00;99505.47;2104478;27;46646;-62
2023/11/28 03:00:42;;;;;;;;;7.00;4.00;;;;;12.40;100.00;99507.28;2103644;27;45792;-59
2023/11/28 03:01:43;;;;;;;;;7.00;5.00;;;;;12.43;100.00;99507.97;2106180;27;46274;-60
2023/11/28 03:02:43;;;;;;;;;5.00;5.00;;;;;12.41;100.00;99507.19;2105943;28;46864;-58
2023/11/28 03:03:43;;;;;;;;;4.67;4.67;;;;;12.45;100.00;99511.44;2105996;28;46757;-58
2023/11/28 03:04:44;;;;;;;;;4.33;4.33;;;;;12.46;100.00;99507.00;2106059;27;46515;-60
2023/11/28 03:05:44;;;;;;;;;5.33;4.33;;;;;12.43;100.00;99504.47;2106223;27;46868;-60
2023/11/28 03:06:44;;;;;;;;;6.00;5.00;;;;;12.41;100.00;99506.34;2105176;28;46613;-62
2023/11/28 03:07:45;;;;;;;;;4.00;4.00;;;;;12.42;100.00;99510.72;2105554;28;46246;-61
2023/11/28 03:08:45;;;;;;;;;5.00;5.00;;;;;12.42;100.00;99522.22;2105704;28;46177;-60
2023/11/28 03:09:45;;;;;;;;;6.33;6.33;;;;;12.42;100.00;99521.34;2106822;27;46223;-62
2023/11/28 03:10:45;;;;;;;;;6.00;6.00;;;;;12.40;100.00;99516.13;2105907;28;46243;-59
2023/11/28 03:11:46;;;;;;;;;5.00;5.00;;;;;12.40;100.00;99515.25;2106239;27;46457;-60
2023/11/28 03:12:46;;;;;;;;;5.00;5.00;;;;;12.41;100.00;99515.19;2106854;27;45748;-60
2023/11/28 03:13:47;;;;;;;;;6.00;6.00;;;;;12.43;100.00;99526.59;2105709;27;46583;-60
2023/11/28 03:14:47;;;;;;;;;6.00;5.00;;;;;12.42;100.00;99527.53;2105952;27;46446;-60
2023/11/28 03:15:47;;;;;;;;;4.00;4.00;;;;;12.44;100.00;99532.78;2105216;27;46790;-58
2023/11/28 03:16:47;;;;;;;;;6.00;6.00;;;;;12.45;100.00;99531.84;2105793;28;46462;-60
2023/11/28 03:17:48;;;;;;;;;6.00;6.00;;;;;12.46;100.00;99528.28;2106244;28;46770;-58
2023/11/28 03:18:48;;;;;;;;;6.33;6.00;;;;;12.47;100.00;99537.97;2104273;27;46175;-61
2023/11/28 03:19:49;;;;;;;;;7.00;6.00;;;;;12.29;100.00;99537.03;2112861;27;46537;-57
2023/11/28 03:20:50;;;;;;;;;6.00;5.50;;;;;12.31;100.00;99536.03;2106080;27;46655;-60
2023/11/28 03:21:50;;;;;;;;;3.67;3.67;;;;;12.37;100.00;99538.41;2105905;27;46470;-61
2023/11/28 03:22:50;;;;;;;;;4.00;4.00;;;;;12.45;100.00;99538.06;2105609;28;46663;-59
2023/11/28 03:23:51;;;;;;;;;4.67;4.67;;;;;12.46;100.00;99541.59;2105168;28;46284;-61
2023/11/28 03:24:51;;;;;;;;;5.67;5.67;;;;;12.46;100.00;99538.91;2106327;27;46304;-60
2023/11/28 03:25:51;;;;;;;;;7.00;7.00;;;;;12.46;100.00;99545.09;2105857;27;46442;-61
2023/11/28 03:26:52;;;;;;;;;6.00;6.00;;;;;12.46;100.00;99546.91;2105376;28;46213;-60
2023/11/28 03:27:52;;;;;;;;;3.00;1.33;;;;;12.46;100.00;99544.25;2105199;28;46415;-60
2023/11/28 03:28:52;;;;;;;;;5.67;5.33;;;;;12.46;100.00;99546.91;2105750;27;46780;-61
2023/11/28 03:29:52;;;;;;;;;5.33;5.33;;;;;12.45;100.00;99556.69;2106059;27;46815;-60
2023/11/28 03:30:53;;;;;;;;;8.33;7.33;;;;;12.46;100.00;99554.88;2100611;27;46734;-61
2023/11/28 03:31:53;;;;;;;;;6.00;6.00;;;;;12.46;100.00;99554.88;2103819;27;46624;-59
2023/11/28 03:32:53;;;;;;;;;4.67;4.33;;;;;12.46;100.00;99558.41;2105931;27;46257;-60
2023/11/28 03:33:54;;;;;;;;;6.00;6.00;;;;;12.45;100.00;99562.00;2110467;27;46588;-59
2023/11/28 03:34:54;;;;;;;;;7.00;7.00;;;;;12.44;100.00;99557.59;2106093;27;46533;-59
2023/11/28 03:35:54;;;;;;;;;5.67;5.67;;;;;12.45;100.00;99570.00;2105771;27;46594;-60
2023/11/28 03:36:57;;;;;;;;;6.67;6.00;;;;;12.45;100.00;99562.00;2106248;27;46340;-60
2023/11/28 03:37:57;;;;;;;;;6.25;5.00;;;;;12.43;100.00;99560.31;2105446;27;46528;-59
2023/11/28 03:38:57;;;;;;;;;8.00;8.00;;;;;12.43;100.00;99563.00;2106122;28;46858;-60
2023/11/28 03:39:58;;;;;;;;;7.33;6.33;;;;;12.40;100.00;99556.03;2105641;27;46564;-59
2023/11/28 03:40:58;;;;;;;;;6.67;6.67;;;;;12.41;100.00;99568.38;2105688;28;46399;-59
2023/11/28 03:41:58;;;;;;;;;5.33;5.33;;;;;12.40;100.00;99566.66;2105850;27;46178;-59
2023/11/28 03:42:59;;;;;;;;;5.00;5.00;;;;;12.43;100.00;99573.63;2106227;27;46911;-60
2023/11/28 03:44:00;;;;;;;;;5.67;4.67;;;;;12.43;100.00;99570.97;2105519;27;46535;-60
2023/11/28 03:45:02;;;;;;;;;7.75;6.00;;;;;12.41;100.00;99575.50;2106578;27;46367;-60
2023/11/28 03:46:03;;;;;;;;;5.75;4.75;;;;;12.39;100.00;99580.91;2105728;28;46571;-61
2023/11/28 03:47:03;;;;;;;;;6.00;6.00;;;;;12.40;100.00;99581.78;2105801;27;46416;-59
2023/11/28 03:48:04;;;;;;;;;6.67;6.00;;;;;12.41;100.00;99578.16;2104697;28;46487;-60
2023/11/28 03:49:04;;;;;;;;;4.33;4.33;;;;;12.39;100.00;99583.56;2106138;28;46403;-60
2023/11/28 03:50:06;;;;;;;;;6.00;6.00;;;;;12.40;100.00;99579.97;2105451;28;46623;-58
2023/11/28 03:51:06;;;;;;;;;7.00;5.75;;;;;12.37;100.00;99580.97;2105816;27;46270;-60
2023/11/28 03:52:07;;;;;;;;;7.33;6.00;;;;;12.37;100.00;99582.78;2105909;28;46397;-61
2023/11/28 03:53:08;;;;;;;;;6.00;5.00;;;;;12.37;100.00;99582.78;2105067;28;46152;-61
2023/11/28 03:54:09;;;;;;;;;5.00;5.00;;;;;12.37;100.00;99588.97;2105797;27;47155;-61
2023/11/28 03:55:10;;;;;;;;;6.00;6.00;;;;;12.37;100.00;99585.44;2101230;27;46634;-59
2023/11/28 03:56:11;;;;;;;;;5.00;4.00;;;;;12.37;100.00;99590.75;2101296;28;46212;-58
2023/11/28 03:57:12;;;;;;;;;6.00;6.00;;;;;12.38;100.00;99589.81;2106028;27;46551;-60
2023/11/28 03:58:12;;;;;;;;;5.75;5.50;;;;;12.38;100.00;99588.03;2105200;28;46326;-57
2023/11/28 03:59:12;;;;;;;;;5.00;5.00;;;;;12.37;100.00;99588.97;2088097;28;46479;-59
2023/11/28 04:00:14;;;;;;;;;5.33;5.00;;;;;12.37;100.00;99582.78;2096975;28;46478;-59
2023/11/28 04:01:15;;;;;;;;;5.00;5.00;;;;;12.42;100.00;99586.06;2105558;27;46353;-57
2023/11/28 04:02:15;;;;;;;;;6.67;5.00;;;;;12.48;100.00;99591.13;2105700;27;46601;-58
2023/11/28 04:03:16;;;;;;;;;5.00;5.00;;;;;12.49;100.00;99586.66;2104621;28;46255;-59
2023/11/28 04:04:16;;;;;;;;;6.00;6.00;;;;;12.52;100.00;99587.38;2106716;27;46791;-58
2023/11/28 04:05:17;;;;;;;;;6.67;5.00;;;;;12.48;100.00;99593.78;2103961;28;46263;-60
2023/11/28 04:06:18;;;;;;;;;5.75;5.75;;;;;12.48;100.00;99599.09;2102913;27;46330;-59
2023/11/28 04:07:18;;;;;;;;;7.67;6.33;;;;;12.49;100.00;99599.97;2099126;28;45548;-60
2023/11/28 04:08:18;;;;;;;;;5.67;5.00;;;;;12.51;100.00;99603.41;2105547;27;46255;-58
2023/11/28 04:09:19;;;;;;;;;7.00;7.00;;;;;12.51;100.00;99601.63;2105492;28;46446;-59
2023/11/28 04:10:20;;;;;;;;;7.25;6.25;;;;;12.51;100.00;99606.06;2105829;27;46382;-57
2023/11/28 04:11:20;;;;;;;;;5.67;5.00;;;;;12.52;100.00;99608.66;2105704;27;46196;-60
2023/11/28 04:12:21;;;;;;;;;5.67;5.67;;;;;12.45;100.00;99609.91;2105760;27;46858;-58
2023/11/28 04:13:21;;;;;;;;;6.33;6.00;;;;;12.43;100.00;99608.22;2105788;27;46500;-59
2023/11/28 04:14:21;;;;;;;;;6.33;6.00;;;;;12.43;100.00;99610.88;2105479;28;45825;-59
2023/11/28 04:15:21;;;;;;;;;3.67;3.67;;;;;12.43;100.00;99614.41;2104890;28;46251;-59
2023/11/28 04:16:22;;;;;;;;;5.00;5.00;;;;;12.44;100.00;99612.59;2105667;28;46523;-60
2023/11/28 04:17:22;;;;;;;;;5.50;5.50;;;;;12.44;100.00;99616.13;2106182;27;46192;-59
2023/11/28 04:18:23;;;;;;;;;5.33;4.67;;;;;12.44;100.00;99628.56;2105500;27;46365;-60
2023/11/28 04:19:23;;;;;;;;;6.00;5.67;;;;;12.42;100.00;99619.81;2109797;27;46874;-60
2023/11/28 04:20:23;;;;;;;;;6.33;5.67;;;;;12.42;100.00;99622.47;2108230;27;46292;-60
2023/11/28 04:21:23;;;;;;;;;5.33;5.33;;;;;12.42;100.00;99619.81;2105653;27;46250;-60
2023/11/28 04:22:24;;;;;;;;;6.00;6.00;;;;;12.42;100.00;99623.31;2104455;27;46665;-62
2023/11/28 04:23:24;;;;;;;;;4.00;4.00;;;;;12.41;100.00;99626.06;2104263;28;46328;-60
2023/11/28 04:24:25;;;;;;;;;6.33;6.33;;;;;12.41;100.00;99626.94;2104425;28;46121;-60
2023/11/28 04:25:25;;;;;;;;;4.67;4.67;;;;;12.42;100.00;99627.78;2105273;28;46598;-58
2023/11/28 04:26:25;;;;;;;;;4.67;4.00;;;;;12.42;100.00;99630.44;2101496;27;46547;-60
2023/11/28 04:27:26;;;;;;;;;5.67;5.67;;;;;12.40;100.00;99625.19;2105709;27;46545;-61
2023/11/28 04:28:26;;;;;;;;;4.67;4.67;;;;;12.40;100.00;99630.53;2105627;28;46843;-58
2023/11/28 04:29:26;;;;;;;;;5.33;4.00;;;;;12.39;100.00;99642.09;2105517;27;47401;-61
2023/11/28 04:30:27;;;;;;;;;4.33;4.33;;;;;12.38;100.00;99625.28;2105612;28;46569;-61
2023/11/28 04:31:27;;;;;;;;;3.33;3.33;;;;;12.41;100.00;99626.94;2105777;27;46663;-61
2023/11/28 04:32:27;;;;;;;;;4.33;4.33;;;;;12.43;100.00;99629.50;2105496;27;46849;-62
2023/11/28 04:33:29;;;;;;;;;4.33;4.00;;;;;12.43;100.00;99630.38;2104663;27;46413;-59
2023/11/28 04:34:29;;;;;;;;;4.50;4.50;;;;;12.43;100.00;99641.00;2110510;27;45289;-61
2023/11/28 04:35:30;;;;;;;;;3.00;3.00;;;;;12.42;100.00;99636.63;2113482;27;46343;-59
2023/11/28 04:36:31;;;;;;;;;4.00;4.00;;;;;12.43;100.00;99641.00;2096128;28;46119;-61
2023/11/28 04:37:32;;;;;;;;;4.75;4.00;;;;;12.40;100.00;99641.16;2104819;28;46282;-60
2023/11/28 04:38:32;;;;;;;;;7.67;4.33;;;;;12.42;100.00;99641.94;2104471;27;46537;-60
2023/11/28 04:39:32;;;;;;;;;4.00;4.00;;;;;12.42;100.00;99641.94;2105321;27;46184;-61
2023/11/28 04:40:32;;;;;;;;;3.67;3.67;;;;;12.32;100.00;99645.97;2105298;28;46228;-58
2023/11/28 04:41:33;;;;;;;;;3.33;3.33;;;;;12.26;100.00;99641.81;2105807;28;46934;-59